createdAt,value
2019-02-09T00:00:52.615Z,0.00
2019-02-09T00:01:52.597Z,0.00
2019-02-09T00:02:52.591Z,0.00
2019-02-09T00:03:52.577Z,0.00
2019-02-09T00:04:52.571Z,0.00
2019-02-09T00:05:52.556Z,0.00
2019-02-09T00:06:52.547Z,0.00
2019-02-09T00:07:52.531Z,0.00
2019-02-09T00:08:52.521Z,0.00
2019-02-09T00:09:52.519Z,0.00
2019-02-09T00:10:52.501Z,0.00
2019-02-09T00:11:52.502Z,0.00
2019-02-09T00:12:52.489Z,0.00
2019-02-09T00:13:52.466Z,0.00
2019-02-09T00:14:52.454Z,0.00
2019-02-09T00:15:52.452Z,0.00
2019-02-09T00:16:52.435Z,0.00
2019-02-09T00:17:52.427Z,0.00
2019-02-09T00:18:52.426Z,0.00
2019-02-09T00:19:52.399Z,0.00
2019-02-09T00:20:52.389Z,0.00
2019-02-09T00:21:52.396Z,0.00
2019-02-09T00:22:52.372Z,0.00
2019-02-09T00:23:52.369Z,0.00
2019-02-09T00:24:52.345Z,0.00
2019-02-09T00:25:52.334Z,0.00
2019-02-09T00:26:52.325Z,0.00
2019-02-09T00:27:52.311Z,0.00
2019-02-09T00:28:52.315Z,0.00
2019-02-09T00:29:52.308Z,0.00
2019-02-09T00:30:52.284Z,0.00
2019-02-09T00:31:52.268Z,0.00
2019-02-09T00:32:52.261Z,0.00
2019-02-09T00:33:52.251Z,0.00
2019-02-09T00:34:52.243Z,0.00
2019-02-09T00:35:52.225Z,0.00
2019-02-09T00:36:52.219Z,0.00
2019-02-09T00:37:52.202Z,0.00
2019-02-09T00:38:52.190Z,0.00
2019-02-09T00:39:52.189Z,0.00
2019-02-09T00:40:52.183Z,0.00
2019-02-09T00:41:52.162Z,0.00
2019-02-09T00:42:52.152Z,0.00
2019-02-09T00:43:52.140Z,0.00
2019-02-09T00:44:52.126Z,0.00
2019-02-09T00:45:52.117Z,0.00
2019-02-09T00:46:52.110Z,0.00
2019-02-09T00:47:52.099Z,0.00
2019-02-09T00:48:52.082Z,0.00
2019-02-09T00:49:52.074Z,0.00
2019-02-09T00:50:52.062Z,0.00
2019-02-09T00:51:52.058Z,0.00
2019-02-09T00:52:52.041Z,0.00
2019-02-09T00:53:52.031Z,0.00
2019-02-09T00:54:52.020Z,0.00
2019-02-09T00:55:52.008Z,0.00
2019-02-09T00:56:51.998Z,0.00
2019-02-09T00:57:51.997Z,0.00
2019-02-09T00:58:51.985Z,0.00
2019-02-09T00:59:54.138Z,0.00
2019-02-09T01:00:51.952Z,0.00
2019-02-09T01:01:51.946Z,0.00
2019-02-09T01:02:51.933Z,0.00
2019-02-09T01:03:51.919Z,0.00
2019-02-09T01:04:51.921Z,0.00
2019-02-09T01:05:51.893Z,0.00
2019-02-09T01:06:51.945Z,0.00
2019-02-09T01:07:51.877Z,0.00
2019-02-09T01:08:51.873Z,0.00
2019-02-09T01:09:51.879Z,0.00
2019-02-09T01:10:51.839Z,0.00
2019-02-09T01:11:51.831Z,0.00
2019-02-09T01:12:51.818Z,0.00
2019-02-09T01:13:51.811Z,0.00
2019-02-09T01:14:51.802Z,0.00
2019-02-09T01:15:51.794Z,0.00
2019-02-09T01:16:51.779Z,0.00
2019-02-09T01:17:51.771Z,0.00
2019-02-09T01:18:51.754Z,0.00
2019-02-09T01:19:51.748Z,0.00
2019-02-09T01:20:51.734Z,0.00
2019-02-09T01:21:51.727Z,0.00
2019-02-09T01:22:51.720Z,0.00
2019-02-09T01:23:51.705Z,0.00
2019-02-09T01:24:51.695Z,0.00
2019-02-09T01:25:51.684Z,0.00
2019-02-09T01:26:51.677Z,0.00
2019-02-09T01:27:51.659Z,0.00
2019-02-09T01:28:51.646Z,0.00
2019-02-09T01:29:51.638Z,0.00
2019-02-09T01:30:51.630Z,0.00
2019-02-09T01:31:51.619Z,0.00
2019-02-09T01:32:51.645Z,0.00
2019-02-09T01:33:51.595Z,0.00
2019-02-09T01:34:51.590Z,0.00
2019-02-09T01:35:51.577Z,0.00
2019-02-09T01:36:51.566Z,0.00
2019-02-09T01:37:51.549Z,0.00
2019-02-09T01:38:51.543Z,0.00
2019-02-09T01:39:51.523Z,0.00
2019-02-09T01:40:51.513Z,0.00
2019-02-09T01:41:51.502Z,0.00
2019-02-09T01:42:51.492Z,0.00
2019-02-09T01:43:51.482Z,0.00
2019-02-09T01:44:51.473Z,0.00
2019-02-09T01:45:51.466Z,0.00
2019-02-09T01:46:51.454Z,0.00
2019-02-09T01:47:51.442Z,0.00
2019-02-09T01:48:51.428Z,0.00
2019-02-09T01:49:51.427Z,0.00
2019-02-09T01:50:51.412Z,0.00
2019-02-09T01:51:51.403Z,0.00
2019-02-09T01:52:51.405Z,0.00
2019-02-09T01:53:51.385Z,0.00
2019-02-09T01:54:51.365Z,0.00
2019-02-09T01:55:51.356Z,0.00
2019-02-09T01:56:51.348Z,0.00
2019-02-09T01:57:51.337Z,0.00
2019-02-09T01:58:51.330Z,0.00
2019-02-09T01:59:51.323Z,0.00
2019-02-09T02:00:51.304Z,0.00
2019-02-09T02:01:51.294Z,0.00
2019-02-09T02:02:51.281Z,0.00
2019-02-09T02:03:51.269Z,0.00
2019-02-09T02:04:51.304Z,0.00
2019-02-09T02:05:51.249Z,0.00
2019-02-09T02:06:51.237Z,0.00
2019-02-09T02:07:51.225Z,0.00
2019-02-09T02:08:51.220Z,0.00
2019-02-09T02:09:51.216Z,0.00
2019-02-09T02:10:51.199Z,0.00
2019-02-09T02:11:51.177Z,0.00
2019-02-09T02:12:51.170Z,0.00
2019-02-09T02:13:51.168Z,0.00
2019-02-09T02:14:51.144Z,0.00
2019-02-09T02:15:51.138Z,0.00
2019-02-09T02:16:51.125Z,0.00
2019-02-09T02:17:51.123Z,0.00
2019-02-09T02:18:51.109Z,0.00
2019-02-09T02:19:51.092Z,0.00
2019-02-09T02:20:51.100Z,0.00
2019-02-09T02:21:51.076Z,0.00
2019-02-09T02:22:51.060Z,0.00
2019-02-09T02:23:51.047Z,0.00
2019-02-09T02:24:51.042Z,0.00
2019-02-09T02:25:51.041Z,0.00
2019-02-09T02:26:51.026Z,0.00
2019-02-09T02:27:51.024Z,0.00
2019-02-09T02:28:50.998Z,0.00
2019-02-09T02:29:50.990Z,0.00
2019-02-09T02:30:50.980Z,0.00
2019-02-09T02:31:50.966Z,0.00
2019-02-09T02:32:51.661Z,0.00
2019-02-09T02:33:50.949Z,0.00
2019-02-09T02:34:50.935Z,0.00
2019-02-09T02:35:50.932Z,0.00
2019-02-09T02:36:50.940Z,0.00
2019-02-09T02:37:50.900Z,0.00
2019-02-09T02:38:50.898Z,0.00
2019-02-09T02:39:50.905Z,0.00
2019-02-09T02:40:50.867Z,0.00
2019-02-09T02:41:50.859Z,0.00
2019-02-09T02:42:50.846Z,0.00
2019-02-09T02:43:50.838Z,0.00
2019-02-09T02:44:50.834Z,0.00
2019-02-09T02:45:50.816Z,0.00
2019-02-09T02:46:50.803Z,0.00
2019-02-09T02:47:50.794Z,0.00
2019-02-09T02:48:50.788Z,0.00
2019-02-09T02:49:50.767Z,0.00
2019-02-09T02:50:50.756Z,0.00
2019-02-09T02:51:50.748Z,0.00
2019-02-09T02:52:50.739Z,0.00
2019-02-09T02:53:50.736Z,0.00
2019-02-09T02:54:50.720Z,0.00
2019-02-09T02:55:50.713Z,0.00
2019-02-09T02:56:50.695Z,0.00
2019-02-09T02:57:50.683Z,0.00
2019-02-09T02:58:50.669Z,0.00
2019-02-09T02:59:50.664Z,0.00
2019-02-09T03:00:50.657Z,0.00
2019-02-09T03:01:50.645Z,0.00
2019-02-09T03:02:50.628Z,0.00
2019-02-09T03:03:50.617Z,0.00
2019-02-09T03:04:50.610Z,0.00
2019-02-09T03:05:50.599Z,0.00
2019-02-09T03:06:50.582Z,0.00
2019-02-09T03:07:50.571Z,0.00
2019-02-09T03:08:50.568Z,0.00
2019-02-09T03:09:50.551Z,0.00
2019-02-09T03:10:50.547Z,0.00
2019-02-09T03:11:50.534Z,0.00
2019-02-09T03:12:50.528Z,0.00
2019-02-09T03:13:50.507Z,0.00
2019-02-09T03:14:50.499Z,0.00
2019-02-09T03:15:50.485Z,0.00
2019-02-09T03:16:50.478Z,0.00
2019-02-09T03:17:50.472Z,0.00
2019-02-09T03:18:50.455Z,0.00
2019-02-09T03:19:50.440Z,0.00
2019-02-09T03:20:50.430Z,0.00
2019-02-09T03:21:50.418Z,0.00
2019-02-09T03:22:50.412Z,0.00
2019-02-09T03:23:50.401Z,0.00
2019-02-09T03:24:50.388Z,0.00
2019-02-09T03:25:50.378Z,0.00
2019-02-09T03:26:50.368Z,0.00
2019-02-09T03:27:50.355Z,0.00
2019-02-09T03:28:50.352Z,0.00
2019-02-09T03:29:50.334Z,0.00
2019-02-09T03:30:50.326Z,0.00
2019-02-09T03:31:50.314Z,0.00
2019-02-09T03:32:50.304Z,0.00
2019-02-09T03:33:50.289Z,0.00
2019-02-09T03:34:50.286Z,0.00
2019-02-09T03:35:50.268Z,0.00
2019-02-09T03:36:50.253Z,0.00
2019-02-09T03:37:50.246Z,0.00
2019-02-09T03:38:50.244Z,0.00
2019-02-09T03:39:50.222Z,0.00
2019-02-09T03:40:50.222Z,0.00
2019-02-09T03:41:50.204Z,0.00
2019-02-09T03:42:50.192Z,0.00
2019-02-09T03:43:50.190Z,0.00
2019-02-09T03:44:50.175Z,0.00
2019-02-09T03:45:50.158Z,0.00
2019-02-09T03:46:50.147Z,0.00
2019-02-09T03:47:50.134Z,0.00
2019-02-09T03:48:50.125Z,0.00
2019-02-09T03:49:50.118Z,0.00
2019-02-09T03:50:50.104Z,0.00
2019-02-09T03:51:50.096Z,0.00
2019-02-09T03:52:50.082Z,0.00
2019-02-09T03:53:50.067Z,0.00
2019-02-09T03:54:50.067Z,0.00
2019-02-09T03:55:50.047Z,0.00
2019-02-09T03:56:50.041Z,0.00
2019-02-09T03:57:50.036Z,0.00
2019-02-09T03:58:50.020Z,0.00
2019-02-09T03:59:50.010Z,0.00
2019-02-09T04:00:55.248Z,0.00
2019-02-09T04:01:50.986Z,0.00
2019-02-09T04:02:49.974Z,0.00
2019-02-09T04:03:49.957Z,0.00
2019-02-09T04:04:49.949Z,0.00
2019-02-09T04:05:49.940Z,0.00
2019-02-09T04:06:49.958Z,0.00
2019-02-09T04:07:49.927Z,0.00
2019-02-09T04:08:49.910Z,0.00
2019-02-09T04:09:49.892Z,0.00
2019-02-09T04:10:49.890Z,0.00
2019-02-09T04:11:49.870Z,0.00
2019-02-09T04:12:49.860Z,0.00
2019-02-09T04:13:49.863Z,0.00
2019-02-09T04:14:49.848Z,0.00
2019-02-09T04:15:49.826Z,0.00
2019-02-09T04:16:49.818Z,0.00
2019-02-09T04:17:49.808Z,0.00
2019-02-09T04:18:49.800Z,0.00
2019-02-09T04:19:49.794Z,0.00
2019-02-09T04:20:49.774Z,0.00
2019-02-09T04:21:49.766Z,0.00
2019-02-09T04:22:49.799Z,0.00
2019-02-09T04:23:49.768Z,0.00
2019-02-09T04:24:49.737Z,0.00
2019-02-09T04:25:49.732Z,0.00
2019-02-09T04:26:49.712Z,0.00
2019-02-09T04:27:49.703Z,0.00
2019-02-09T04:28:49.690Z,0.00
2019-02-09T04:29:49.694Z,0.00
2019-02-09T04:30:49.667Z,0.00
2019-02-09T04:31:49.664Z,0.00
2019-02-09T04:32:49.645Z,0.00
2019-02-09T04:33:49.635Z,0.00
2019-02-09T04:34:49.630Z,0.00
2019-02-09T04:35:49.611Z,0.00
2019-02-09T04:36:49.611Z,0.00
2019-02-09T04:37:49.588Z,0.00
2019-02-09T04:38:49.576Z,0.00
2019-02-09T04:39:49.565Z,0.00
2019-02-09T04:40:49.558Z,0.00
2019-02-09T04:41:49.547Z,0.00
2019-02-09T04:42:49.535Z,0.00
2019-02-09T04:43:49.524Z,0.00
2019-02-09T04:44:49.508Z,0.00
2019-02-09T04:45:49.505Z,0.00
2019-02-09T04:46:49.490Z,0.00
2019-02-09T04:47:49.485Z,0.00
2019-02-09T04:48:49.474Z,0.00
2019-02-09T04:49:49.462Z,0.00
2019-02-09T04:50:49.448Z,0.00
2019-02-09T04:51:49.458Z,0.00
2019-02-09T04:52:49.429Z,0.00
2019-02-09T04:53:49.421Z,0.00
2019-02-09T04:54:49.404Z,0.00
2019-02-09T04:55:49.396Z,0.00
2019-02-09T04:56:49.385Z,0.00
2019-02-09T04:57:49.376Z,0.00
2019-02-09T04:58:49.366Z,0.00
2019-02-09T04:59:49.356Z,0.00
2019-02-09T05:00:49.346Z,0.00
2019-02-09T05:01:49.330Z,0.00
2019-02-09T05:02:49.325Z,0.00
2019-02-09T05:03:49.307Z,0.00
2019-02-09T05:04:49.315Z,0.00
2019-02-09T05:05:49.285Z,0.00
2019-02-09T05:06:49.288Z,0.00
2019-02-09T05:07:49.262Z,0.00
2019-02-09T05:08:49.258Z,0.00
2019-02-09T05:09:49.241Z,0.00
2019-02-09T05:10:49.240Z,0.00
2019-02-09T05:11:49.216Z,0.00
2019-02-09T05:12:49.212Z,0.00
2019-02-09T05:13:49.199Z,0.00
2019-02-09T05:14:49.196Z,0.00
2019-02-09T05:15:49.184Z,0.00
2019-02-09T05:16:49.179Z,0.00
2019-02-09T05:17:49.164Z,0.00
2019-02-09T05:18:49.146Z,0.00
2019-02-09T05:19:49.138Z,0.00
2019-02-09T05:20:49.133Z,0.00
2019-02-09T05:21:49.119Z,0.00
2019-02-09T05:22:49.120Z,0.00
2019-02-09T05:23:49.092Z,0.00
2019-02-09T05:24:49.091Z,0.00
2019-02-09T05:25:49.081Z,0.00
2019-02-09T05:26:49.063Z,0.00
2019-02-09T05:27:49.062Z,0.00
2019-02-09T05:28:49.040Z,0.00
2019-02-09T05:29:49.035Z,0.00
2019-02-09T05:30:49.026Z,0.00
2019-02-09T05:31:49.021Z,0.00
2019-02-09T05:32:49.002Z,0.00
2019-02-09T05:33:48.995Z,0.00
2019-02-09T05:34:48.982Z,0.00
2019-02-09T05:35:48.978Z,0.00
2019-02-09T05:36:48.967Z,0.00
2019-02-09T05:37:48.946Z,0.00
2019-02-09T05:38:48.947Z,0.00
2019-02-09T05:39:48.934Z,0.00
2019-02-09T05:40:48.912Z,0.00
2019-02-09T05:41:48.914Z,0.00
2019-02-09T05:42:48.902Z,0.00
2019-02-09T05:43:48.891Z,0.00
2019-02-09T05:44:48.874Z,0.00
2019-02-09T05:45:48.860Z,0.00
2019-02-09T05:46:48.856Z,0.00
2019-02-09T05:47:48.841Z,0.00
2019-02-09T05:48:48.843Z,0.00
2019-02-09T05:49:48.822Z,0.00
2019-02-09T05:50:48.814Z,0.00
2019-02-09T05:51:48.796Z,0.00
2019-02-09T05:52:48.787Z,0.00
2019-02-09T05:53:48.781Z,0.00
2019-02-09T05:54:48.777Z,0.00
2019-02-09T05:55:48.787Z,0.00
2019-02-09T05:56:48.752Z,0.00
2019-02-09T05:57:48.733Z,0.00
2019-02-09T05:58:48.726Z,0.00
2019-02-09T05:59:48.706Z,0.00
2019-02-09T06:00:49.658Z,0.00
2019-02-09T06:01:48.690Z,0.00
2019-02-09T06:03:19.417Z,0.00
2019-02-09T06:04:19.374Z,0.00
2019-02-09T06:05:50.072Z,0.00
2019-02-09T06:06:50.067Z,0.00
2019-02-09T06:07:50.042Z,0.00
2019-02-09T06:08:50.034Z,0.00
2019-02-09T06:09:50.019Z,0.00
2019-02-09T06:10:50.033Z,0.00
2019-02-09T06:11:50.014Z,0.00
2019-02-09T06:12:50.008Z,0.00
2019-02-09T06:13:49.984Z,0.00
2019-02-09T06:14:49.966Z,0.00
2019-02-09T06:15:49.957Z,0.00
2019-02-09T06:16:49.950Z,0.00
2019-02-09T06:17:49.938Z,0.00
2019-02-09T06:18:49.924Z,0.00
2019-02-09T06:19:49.914Z,0.00
2019-02-09T06:20:49.906Z,4.00
2019-02-09T06:21:49.900Z,4.00
2019-02-09T06:22:49.899Z,4.00
2019-02-09T06:23:49.883Z,4.00
2019-02-09T06:24:49.861Z,4.00
2019-02-09T06:25:49.846Z,8.00
2019-02-09T06:27:20.530Z,4.00
2019-02-09T06:28:20.527Z,8.00
2019-02-09T06:29:51.220Z,12.00
2019-02-09T06:30:51.202Z,16.00
2019-02-09T06:31:52.067Z,16.00
2019-02-09T06:32:51.183Z,20.00
2019-02-09T06:33:51.177Z,20.00
2019-02-09T06:34:51.172Z,24.00
2019-02-09T06:35:51.141Z,28.00
2019-02-09T06:36:51.137Z,28.00
2019-02-09T06:37:51.127Z,32.00
2019-02-09T06:38:51.119Z,28.00
2019-02-09T06:39:51.112Z,32.00
2019-02-09T06:40:51.094Z,32.00
2019-02-09T06:41:51.081Z,32.00
2019-02-09T06:42:51.071Z,32.00
2019-02-09T06:43:51.061Z,32.00
2019-02-09T06:44:51.053Z,32.00
2019-02-09T06:45:51.037Z,36.00
2019-02-09T06:46:51.023Z,44.00
2019-02-09T06:47:51.022Z,48.00
2019-02-09T06:48:51.015Z,60.00
2019-02-09T06:49:50.996Z,88.00
2019-02-09T06:51:21.677Z,108.00
2019-02-09T06:52:21.651Z,116.00
2019-02-09T06:53:52.324Z,120.00
2019-02-09T06:54:52.306Z,120.00
2019-02-09T06:55:52.296Z,128.00
2019-02-09T06:56:52.289Z,120.00
2019-02-09T06:57:52.286Z,132.00
2019-02-09T06:58:52.272Z,144.00
2019-02-09T06:59:52.262Z,140.00
2019-02-09T07:00:52.245Z,128.00
2019-02-09T07:01:52.236Z,140.00
2019-02-09T07:02:52.230Z,168.00
2019-02-09T07:03:52.221Z,184.00
2019-02-09T07:04:52.197Z,200.00
2019-02-09T07:05:52.192Z,204.00
2019-02-09T07:06:52.217Z,200.00
2019-02-09T07:07:52.226Z,184.00
2019-02-09T07:08:52.162Z,172.00
2019-02-09T07:09:52.166Z,176.00
2019-02-09T07:10:52.134Z,172.00
2019-02-09T07:11:52.133Z,156.00
2019-02-09T07:12:52.161Z,160.00
2019-02-09T07:13:52.107Z,160.00
2019-02-09T07:15:22.884Z,140.00
2019-02-09T07:16:22.859Z,136.00
2019-02-09T07:17:53.525Z,144.00
2019-02-09T07:18:53.506Z,144.00
2019-02-09T07:19:53.496Z,136.00
2019-02-09T07:20:53.486Z,140.00
2019-02-09T07:21:53.493Z,156.00
2019-02-09T07:22:53.462Z,188.00
2019-02-09T07:23:53.456Z,208.00
2019-02-09T07:24:55.041Z,224.00
2019-02-09T07:25:53.435Z,216.00
2019-02-09T07:26:53.428Z,224.00
2019-02-09T07:27:53.414Z,244.00
2019-02-09T07:28:53.397Z,244.00
2019-02-09T07:29:53.393Z,264.00
2019-02-09T07:30:53.380Z,268.00
2019-02-09T07:31:56.553Z,316.00
2019-02-09T07:32:53.359Z,356.00
2019-02-09T07:33:53.350Z,396.00
2019-02-09T07:34:53.336Z,400.00
2019-02-09T07:35:53.323Z,380.00
2019-02-09T07:36:53.317Z,448.00
2019-02-09T07:37:53.302Z,488.00
2019-02-09T07:38:53.303Z,460.00
2019-02-09T07:39:53.279Z,368.00
2019-02-09T07:40:53.268Z,320.00
2019-02-09T07:41:53.254Z,276.00
2019-02-09T07:42:53.253Z,244.00
2019-02-09T07:43:53.241Z,220.00
2019-02-09T07:44:53.237Z,216.00
2019-02-09T07:45:53.221Z,204.00
2019-02-09T07:46:53.212Z,204.00
2019-02-09T07:47:53.191Z,236.00
2019-02-09T07:48:53.183Z,228.00
2019-02-09T07:49:53.221Z,208.00
2019-02-09T07:50:53.172Z,192.00
2019-02-09T07:51:53.151Z,204.00
2019-02-09T07:52:53.149Z,236.00
2019-02-09T07:53:53.128Z,280.00
2019-02-09T07:54:53.126Z,340.00
2019-02-09T07:55:53.118Z,384.00
2019-02-09T07:56:53.092Z,476.00
2019-02-09T07:57:53.089Z,492.00
2019-02-09T07:58:53.079Z,428.00
2019-02-09T07:59:53.072Z,364.00
2019-02-09T08:00:53.058Z,304.00
2019-02-09T08:01:53.049Z,264.00
2019-02-09T08:02:53.032Z,228.00
2019-02-09T08:03:53.023Z,232.00
2019-02-09T08:04:53.014Z,256.00
2019-02-09T08:05:52.998Z,268.00
2019-02-09T08:06:53.051Z,280.00
2019-02-09T08:07:53.030Z,268.00
2019-02-09T08:08:52.975Z,236.00
2019-02-09T08:09:52.957Z,228.00
2019-02-09T08:10:52.947Z,224.00
2019-02-09T08:11:52.941Z,244.00
2019-02-09T08:12:52.934Z,340.00
2019-02-09T08:13:52.917Z,528.00
2019-02-09T08:14:52.905Z,676.00
2019-02-09T08:15:52.887Z,740.00
2019-02-09T08:16:52.882Z,764.00
2019-02-09T08:17:52.890Z,788.00
2019-02-09T08:18:52.880Z,928.00
2019-02-09T08:19:52.877Z,1108.00
2019-02-09T08:20:52.837Z,1356.00
2019-02-09T08:21:52.879Z,1676.00
2019-02-09T08:22:53.403Z,1744.00
2019-02-09T08:23:52.816Z,1568.00
2019-02-09T08:24:52.802Z,1564.00
2019-02-09T08:25:52.781Z,1536.00
2019-02-09T08:26:52.774Z,1760.00
2019-02-09T08:27:52.761Z,2376.00
2019-02-09T08:28:52.750Z,3104.00
2019-02-09T08:29:52.750Z,3444.00
2019-02-09T08:30:52.732Z,3188.00
2019-02-09T08:31:52.718Z,2864.00
2019-02-09T08:32:52.704Z,2460.00
2019-02-09T08:33:52.718Z,2452.00
2019-02-09T08:34:52.689Z,2464.00
2019-02-09T08:35:52.674Z,2412.00
2019-02-09T08:36:52.667Z,2368.00
2019-02-09T08:37:52.650Z,2640.00
2019-02-09T08:38:52.645Z,3064.00
2019-02-09T08:39:52.626Z,3208.00
2019-02-09T08:40:52.628Z,2840.00
2019-02-09T08:41:52.621Z,2112.00
2019-02-09T08:42:52.600Z,1508.00
2019-02-09T08:43:52.590Z,1136.00
2019-02-09T08:44:52.587Z,880.00
2019-02-09T08:45:52.564Z,752.00
2019-02-09T08:46:52.552Z,712.00
2019-02-09T08:47:52.545Z,780.00
2019-02-09T08:48:52.531Z,936.00
2019-02-09T08:49:52.520Z,1060.00
2019-02-09T08:50:52.521Z,1244.00
2019-02-09T08:51:52.505Z,1480.00
2019-02-09T08:52:52.682Z,1764.00
2019-02-09T08:53:52.479Z,2120.00
2019-02-09T08:54:52.469Z,2548.00
2019-02-09T08:55:52.456Z,3068.00
2019-02-09T08:56:52.447Z,3812.00
2019-02-09T08:57:52.446Z,4932.00
2019-02-09T08:58:52.432Z,9732.00
2019-02-09T08:59:52.417Z,83424.00
2019-02-09T09:00:52.403Z,93952.00
2019-02-09T09:01:52.400Z,84832.00
2019-02-09T09:02:52.390Z,91872.00
2019-02-09T09:03:52.390Z,89280.00
2019-02-09T09:04:52.369Z,83328.00
2019-02-09T09:05:52.350Z,38880.00
2019-02-09T09:06:52.336Z,25728.00
2019-02-09T09:07:52.350Z,24352.00
2019-02-09T09:08:52.325Z,37632.00
2019-02-09T09:09:52.317Z,59616.00
2019-02-09T09:10:52.303Z,53024.00
2019-02-09T09:11:52.290Z,60928.00
2019-02-09T09:12:52.275Z,70688.00
2019-02-09T09:13:52.266Z,89088.00
2019-02-09T09:14:52.262Z,91552.00
2019-02-09T09:15:52.254Z,95776.00
2019-02-09T09:16:52.237Z,23872.00
2019-02-09T09:17:52.224Z,48992.00
2019-02-09T09:18:52.223Z,95808.00
2019-02-09T09:19:52.208Z,99616.00
2019-02-09T09:20:52.202Z,17792.00
2019-02-09T09:21:52.177Z,96160.00
2019-02-09T09:22:52.174Z,76544.00
2019-02-09T09:23:52.163Z,94336.00
2019-02-09T09:24:52.162Z,94272.00
2019-02-09T09:25:52.139Z,89600.00
2019-02-09T09:26:52.140Z,66240.00
2019-02-09T09:27:52.115Z,69376.00
2019-02-09T09:28:52.115Z,91872.00
2019-02-09T09:29:52.094Z,61248.00
2019-02-09T09:30:52.083Z,58176.00
2019-02-09T09:31:52.084Z,52864.00
2019-02-09T09:32:52.072Z,43488.00
2019-02-09T09:33:52.050Z,68832.00
2019-02-09T09:34:52.043Z,68448.00
2019-02-09T09:35:52.035Z,69280.00
2019-02-09T09:36:52.042Z,11836.00
2019-02-09T09:37:52.028Z,8472.00
2019-02-09T09:38:52.001Z,7028.00
2019-02-09T09:39:51.985Z,5028.00
2019-02-09T09:40:51.983Z,4748.00
2019-02-09T09:41:51.978Z,5276.00
2019-02-09T09:42:51.960Z,6548.00
2019-02-09T09:43:51.955Z,6844.00
2019-02-09T09:44:51.938Z,6592.00
2019-02-09T09:45:51.928Z,9416.00
2019-02-09T09:46:51.915Z,10344.00
2019-02-09T09:47:51.927Z,9856.00
2019-02-09T09:48:51.899Z,49248.00
2019-02-09T09:49:51.889Z,59424.00
2019-02-09T09:50:51.881Z,70176.00
2019-02-09T09:51:51.864Z,76128.00
2019-02-09T09:52:51.857Z,56928.00
2019-02-09T09:53:51.841Z,11200.00
2019-02-09T09:54:51.830Z,15424.00
2019-02-09T09:55:51.817Z,16480.00
2019-02-09T09:56:51.821Z,45216.00
2019-02-09T09:57:51.799Z,46080.00
2019-02-09T09:58:51.793Z,60416.00
2019-02-09T09:59:51.776Z,75936.00
2019-02-09T10:00:51.765Z,92576.00
2019-02-09T10:01:51.755Z,92544.00
2019-02-09T10:02:51.741Z,84992.00
2019-02-09T10:03:52.190Z,66304.00
2019-02-09T10:04:51.733Z,49824.00
2019-02-09T10:05:51.714Z,51232.00
2019-02-09T10:06:51.709Z,56320.00
2019-02-09T10:07:51.684Z,56032.00
2019-02-09T10:08:51.681Z,52768.00
2019-02-09T10:09:51.675Z,70176.00
2019-02-09T10:10:51.662Z,68288.00
2019-02-09T10:11:51.647Z,58208.00
2019-02-09T10:12:51.642Z,42080.00
2019-02-09T10:13:51.622Z,61088.00
2019-02-09T10:14:51.612Z,41952.00
2019-02-09T10:15:51.609Z,49568.00
2019-02-09T10:16:51.595Z,51072.00
2019-02-09T10:17:51.604Z,48672.00
2019-02-09T10:18:51.571Z,51712.00
2019-02-09T10:19:51.569Z,25728.00
2019-02-09T10:20:51.550Z,55136.00
2019-02-09T10:21:51.548Z,30400.00
2019-02-09T10:22:51.538Z,9420.00
2019-02-09T10:23:51.529Z,9880.00
2019-02-09T10:24:51.506Z,7504.00
2019-02-09T10:25:51.504Z,9568.00
2019-02-09T10:26:51.491Z,8360.00
2019-02-09T10:27:51.483Z,8764.00
2019-02-09T10:28:51.487Z,8592.00
2019-02-09T10:29:51.464Z,8452.00
2019-02-09T10:30:51.442Z,10692.00
2019-02-09T10:31:51.432Z,8736.00
2019-02-09T10:32:51.424Z,10236.00
2019-02-09T10:33:51.409Z,24416.00
2019-02-09T10:34:51.405Z,40608.00
2019-02-09T10:35:51.391Z,48864.00
2019-02-09T10:36:51.379Z,23872.00
2019-02-09T10:37:51.380Z,10452.00
2019-02-09T10:38:51.848Z,12348.00
2019-02-09T10:39:51.352Z,12272.00
2019-02-09T10:40:51.362Z,18528.00
2019-02-09T10:41:51.327Z,25120.00
2019-02-09T10:42:51.319Z,20928.00
2019-02-09T10:43:51.311Z,19808.00
2019-02-09T10:44:51.310Z,33312.00
2019-02-09T10:45:51.290Z,21632.00
2019-02-09T10:46:51.280Z,17856.00
2019-02-09T10:47:51.258Z,22720.00
2019-02-09T10:48:51.257Z,46880.00
2019-02-09T10:49:51.241Z,26816.00
2019-02-09T10:50:51.227Z,5748.00
2019-02-09T10:51:51.220Z,22848.00
2019-02-09T10:52:51.203Z,31968.00
2019-02-09T10:53:51.194Z,27840.00
2019-02-09T10:54:51.189Z,10616.00
2019-02-09T10:55:51.247Z,9876.00
2019-02-09T10:56:51.165Z,6024.00
2019-02-09T10:57:51.161Z,9528.00
2019-02-09T10:58:51.139Z,8908.00
2019-02-09T10:59:51.131Z,8412.00
2019-02-09T11:00:51.126Z,9576.00
2019-02-09T11:01:51.107Z,9172.00
2019-02-09T11:02:52.224Z,8216.00
2019-02-09T11:03:51.095Z,7524.00
2019-02-09T11:04:51.075Z,7632.00
2019-02-09T11:05:51.071Z,11508.00
2019-02-09T11:06:51.062Z,6672.00
2019-02-09T11:07:51.045Z,9808.00
2019-02-09T11:08:51.037Z,9984.00
2019-02-09T11:09:51.027Z,10196.00
2019-02-09T11:10:51.017Z,8800.00
2019-02-09T11:11:51.001Z,10916.00
2019-02-09T11:12:50.997Z,9876.00
2019-02-09T11:13:50.981Z,5944.00
2019-02-09T11:14:50.977Z,6480.00
2019-02-09T11:15:50.957Z,6468.00
2019-02-09T11:16:50.951Z,5852.00
2019-02-09T11:17:50.943Z,6072.00
2019-02-09T11:18:50.939Z,6740.00
2019-02-09T11:19:50.926Z,5036.00
2019-02-09T11:20:50.916Z,5168.00
2019-02-09T11:21:50.895Z,4488.00
2019-02-09T11:22:50.883Z,4904.00
2019-02-09T11:23:50.874Z,5628.00
2019-02-09T11:24:50.862Z,9324.00
2019-02-09T11:25:50.864Z,6804.00
2019-02-09T11:26:50.837Z,6588.00
2019-02-09T11:27:50.974Z,6988.00
2019-02-09T11:28:50.814Z,9980.00
2019-02-09T11:29:50.825Z,7756.00
2019-02-09T11:30:50.800Z,5812.00
2019-02-09T11:31:50.793Z,5236.00
2019-02-09T11:32:50.775Z,4336.00
2019-02-09T11:33:50.760Z,5988.00
2019-02-09T11:34:50.748Z,6104.00
2019-02-09T11:35:50.745Z,6752.00
2019-02-09T11:36:50.771Z,7136.00
2019-02-09T11:37:50.745Z,6000.00
2019-02-09T11:38:50.706Z,4292.00
2019-02-09T11:39:50.705Z,5588.00
2019-02-09T11:40:50.946Z,6572.00
2019-02-09T11:41:50.696Z,6056.00
2019-02-09T11:42:50.679Z,5428.00
2019-02-09T11:43:50.658Z,4088.00
2019-02-09T11:44:50.642Z,3172.00
2019-02-09T11:45:50.679Z,2488.00
2019-02-09T11:46:50.621Z,2428.00
2019-02-09T11:47:50.619Z,3496.00
2019-02-09T11:48:50.609Z,4120.00
2019-02-09T11:49:50.595Z,4396.00
2019-02-09T11:50:50.589Z,3660.00
2019-02-09T11:51:50.571Z,6532.00
2019-02-09T11:52:50.561Z,8412.00
2019-02-09T11:53:50.544Z,7808.00
2019-02-09T11:54:50.539Z,8480.00
2019-02-09T11:55:50.531Z,6812.00
2019-02-09T11:56:50.515Z,7648.00
2019-02-09T11:57:50.504Z,5624.00
2019-02-09T11:58:50.499Z,5156.00
2019-02-09T11:59:50.490Z,6368.00
2019-02-09T12:00:50.477Z,5216.00
2019-02-09T12:01:51.935Z,7376.00
2019-02-09T12:02:50.448Z,7876.00
2019-02-09T12:03:50.436Z,5576.00
2019-02-09T12:04:50.435Z,6304.00
2019-02-09T12:05:50.423Z,4456.00
2019-02-09T12:06:50.419Z,3884.00
2019-02-09T12:07:50.394Z,3852.00
2019-02-09T12:08:50.382Z,4040.00
2019-02-09T12:09:50.384Z,3016.00
2019-02-09T12:10:50.375Z,2616.00
2019-02-09T12:11:50.369Z,1980.00
2019-02-09T12:12:50.351Z,2032.00
2019-02-09T12:13:55.194Z,3496.00
2019-02-09T12:14:51.328Z,3992.00
2019-02-09T12:15:50.309Z,2700.00
2019-02-09T12:16:50.301Z,1940.00
2019-02-09T12:17:50.294Z,1832.00
2019-02-09T12:18:50.280Z,1344.00
2019-02-09T12:19:50.271Z,1400.00
2019-02-09T12:20:50.272Z,1632.00
2019-02-09T12:21:50.248Z,1664.00
2019-02-09T12:22:50.242Z,1720.00
2019-02-09T12:23:50.228Z,1852.00
2019-02-09T12:24:50.216Z,2160.00
2019-02-09T12:25:50.207Z,2424.00
2019-02-09T12:26:50.200Z,2536.00
2019-02-09T12:27:50.181Z,4952.00
2019-02-09T12:28:50.190Z,5848.00
2019-02-09T12:29:50.161Z,5244.00
2019-02-09T12:30:50.150Z,3636.00
2019-02-09T12:31:50.139Z,3132.00
2019-02-09T12:32:50.134Z,3188.00
2019-02-09T12:33:50.247Z,3412.00
2019-02-09T12:34:50.106Z,3708.00
2019-02-09T12:35:50.097Z,3364.00
2019-02-09T12:36:50.088Z,4932.00
2019-02-09T12:37:50.074Z,5292.00
2019-02-09T12:38:50.064Z,5632.00
2019-02-09T12:39:50.068Z,5196.00
2019-02-09T12:40:50.038Z,3856.00
2019-02-09T12:41:50.042Z,4160.00
2019-02-09T12:42:50.023Z,4628.00
2019-02-09T12:43:50.009Z,5108.00
2019-02-09T12:44:50.001Z,5320.00
2019-02-09T12:45:49.999Z,6168.00
2019-02-09T12:46:49.992Z,4628.00